Weather at Phoenix Sky Harbor International Airport

Public forecast

Using degrees Fahrenheit for public forecast. Weather courtesy of forecast.io.

Current aviation weather report (METAR) for Phoenix Sky Harbor International Airport

Retrieved 2021/01/23 08:51 UTC (21 minutes ago):

KPHX 230851Z 13007KT 10SM FEW060 BKN080 OVC090 14/05 A2987 RMK AO2 SLP105 VIRGA T01390050 58003

Aviation forecast (TAF) for Phoenix Sky Harbor International Airport

Retrieved 2021/01/23 06:22 UTC (3 hours ago):

TAF KPHX 230520Z 2306/2412 24007KT P6SM VCSH FEW040 SCT050 BKN060 FM230800 16005KT P6SM VCSH SCT040 BKN050 FM231200 17008KT P6SM VCSH SCT030 OVC050 FM231800 19010KT P6SM VCSH SCT040 OVC060 FM232100 25007KT P6SM -SHRA SCT040 OVC060 FM240600 29004KT P6SM -SHRA SCT020 BKN040 OVC050